Meteo4 di Emilio Bellavite Il primo osservatorio Meteo di Verona  
 
domenica 22 aprile 2018
 
 
dati in tempo reale
Di seguito i dati in tempo reale delle stazioni on line, suddivise per regione, della rete di Meteo4. Cliccando sul link della stazione, ove presente, si accederà al sito web personale.
Stazioni online
Regione ABRUZZO
Località Giorno Ora Temp. Umid. Relat. Dew Point Press. Atm. Velocità Vento Direz. Vento Precip. Temp.
Min
Temp.
Max
San Salvo3 (CH) 22/04/18 21.50 15.5 °C 86 % 13.2 °C 1015.3 hPa 0.0 Km/h S 0.0 mm  11.1 °C 22.4 °C
Vasto (CH) 22/04/18 20.45 16.6 °C 10 % -15.1 °C 1015.7 hPa 0.0 Km/h --- 0.0 mm  10.3 °C 21.6 °C
 
 
Regione BASILICATA
Località Giorno Ora Temp. Umid. Relat. Dew Point Press. Atm. Velocità Vento Direz. Vento Precip. Temp.
Min
Temp.
Max
Miglionico (MT) 22/04/18 21.40 14.2 °C 78 % 10.4 °C 1016.2 hPa 6.4 Km/h SSE 0.2 mm  11.7 °C 21.4 °C
 
 
Regione CALABRIA
Località Giorno Ora Temp. Umid. Relat. Dew Point Press. Atm. Velocità Vento Direz. Vento Precip. Temp.
Min
Temp.
Max
Bisignano (CS) 22/04/18 21.33 16.7 °C 60 % 8.9 °C 1018.9 hPa 2.8 Km/h E 0.0 mm  11.5 °C 25.3 °C
Savelli (KR) 22/04/18 21.50 13.4 °C 73 % 8.7 °C 1018.3 hPa 0.4 Km/h S 0.0 mm  11.8 °C 17.6 °C
 
 
Regione CAMPANIA
Località Giorno Ora Temp. Umid. Relat. Dew Point Press. Atm. Velocità Vento Direz. Vento Precip. Temp.
Min
Temp.
Max
Torre Annunziata (NA) 22/04/18 21.35 17.9 °C 87 % 15.7 °C 1019.2 hPa 3.9 Km/h WNW 0.0 mm  14.8 °C 20.7 °C
 
 
Regione EMILIA ROMAGNA
Località Giorno Ora Temp. Umid. Relat. Dew Point Press. Atm. Velocità Vento Direz. Vento Precip. Temp.
Min
Temp.
Max
Bellaria Igea Marina (RN) 22/04/18 21.33 18.5 °C 87 % 16.3 °C 1016.2 hPa 9.7 Km/h SE 0.0 mm  9.9 °C 20.3 °C
Bellaria Igea Marina2 (RN) 22/04/18 21.33 18.7 °C 88 % 16.6 °C 1015.9 hPa 9.7 Km/h SE 0.0 mm  10.0 °C 20.3 °C
Bellaria Igea Marina3 (RN) 22/04/18 21.33 17.4 °C 77 % 13.3 °C 1014.8 hPa 0.0 Km/h SE 0.0 mm  8.3 °C 21.9 °C
Carpi (MO) 22/04/18 21.34 19.8 °C 63 % 12.6 °C 1015.5 hPa 0.0 Km/h E 0.0 mm  11.1 °C 29.7 °C
Filo di Argenta (FE) 22/04/18 21.35 16.5 °C 85 % 13.9 °C 1017.3 hPa 2.8 Km/h ENE 0.0 mm  8.1 °C 26.2 °C
Masiera di Bagnacavallo (RA) 22/04/18 21.50 15.3 °C 90 % 13.7 °C 1013.4 hPa 3.7 Km/h ESE 0.0 mm  7.4 °C 26.4 °C
Migliarino (FE) 22/04/18 21.50 17.3 °C 82 % 14.2 °C 1015.9 hPa 0.0 Km/h NE 0.0 mm  11.4 °C 26.6 °C
Ponte San Pellegrino (MO) 22/04/18 21.49 17.6 °C 73 % 12.7 °C 1019.3 hPa 9.7 Km/h NE 0.0 mm  10.7 °C 26.5 °C
Riccione (RN) 22/04/18 21.30 16.8 °C 84 % 14.1 °C 1015.5 hPa 0.0 Km/h SSW 0.0 mm  9.1 °C 20.3 °C
Rimini (RN) 22/04/18 21.30 18.2 °C 80 % 14.7 °C 1017.0 hPa 0.0 Km/h ESE 0.0 mm  9.0 °C 20.3 °C
Rimini Zona Palas (RN) 22/04/18 21.34 17.9 °C 84 % 15.0 °C 1017.5 hPa 3.2 Km/h SE 0.0 mm  9.9 °C 20.8 °C
Stiore - Monteveglio (BO) 22/04/18 21.50 17.6 °C 65 % 10.9 °C 1013.3 hPa 0.0 Km/h SE 0.0 mm  10.9 °C 26.9 °C
 
 
Regione FRIULI V.G.
Località Giorno Ora Temp. Umid. Relat. Dew Point Press. Atm. Velocità Vento Direz. Vento Precip. Temp.
Min
Temp.
Max
Budoia (PN) 22/04/18 21.30 16.8 °C 62 % 9.5 °C 1017.5 hPa 0.0 Km/h WNW 0.0 mm  12.1 °C 25.1 °C
Campoformido (UD) 22/04/18 21.32 17.4 °C 62 % 10.0 °C 1017.8 hPa 0.0 Km/h SSW 0.0 mm  12.3 °C 22.9 °C
Codroipo (UD) 22/04/18 21.33 17.2 °C 57 % 8.6 °C 1017.4 hPa 0.0 Km/h NW 0.0 mm  12.5 °C 24.8 °C
Fogliano Redipuglia (GO) 22/04/18 21.34 15.0 °C 63 % 8.0 °C 1017.6 hPa 3.2 Km/h E 0.0 mm  10.6 °C 24.4 °C
Fontanafredda (PN) 22/04/18 21.36 15.0 °C 86 % 12.7 °C 1016.9 hPa 0.0 Km/h SSE 0.0 mm  10.1 °C 24.4 °C
Gorizia (GO) 22/04/18 21.34 17.6 °C 50 % 7.0 °C 1017.5 hPa 0.0 Km/h WSW 0.0 mm  11.1 °C 23.3 °C
Gradisca d'Isonzo (GO) 18/04/18 13.11 25.2 °C 38 % 9.9 °C 1028.2 hPa 0.0 Km/h N 0.0 mm  9.9 °C 25.2 °C
Ovaro loc. Liariis (UD) 22/04/18 21.25 14.6 °C 73 % 9.8 °C 1017.5 hPa 0.0 Km/h --- 0.0 mm  9.2 °C 23.7 °C
Pordenone (PN) 22/04/18 21.30 18.7 °C 57 % 10.0 °C 1017.0 hPa 0.0 Km/h --- 0.0 mm  13.9 °C 26.2 °C
Sacile (PN) 22/04/18 21.40 17.8 °C 60 % 9.9 °C 1017.5 hPa 0.0 Km/h SW 0.0 mm  11.9 °C 25.3 °C
Staranzano (GO) 22/04/18 21.40 17.0 °C 65 % 10.4 °C 1018.5 hPa 0.0 Km/h SE 0.0 mm  10.8 °C 22.8 °C
 
 
Regione LAZIO
Località Giorno Ora Temp. Umid. Relat. Dew Point Press. Atm. Velocità Vento Direz. Vento Precip. Temp.
Min
Temp.
Max
Ardea (RM) 22/04/18 21.32 18.1 °C 77 % 14.0 °C 1019.5 hPa 0.0 Km/h SE 0.0 mm  14.5 °C 23.5 °C
Capodimonte (VT) 22/04/18 21.30 15.7 °C 84 % 13.0 °C 1018.8 hPa 0.0 Km/h N 0.0 mm  11.3 °C 23.0 °C
Caprarola Centro Storico (VT) 22/04/18 21.33 17.2 °C 56 % 8.3 °C 1018.0 hPa 3.9 Km/h NW 0.0 mm  11.8 °C 24.2 °C
Civita Castellana (VT) 22/04/18 21.34 17.8 °C 62 % 10.4 °C 1018.2 hPa 0.7 Km/h S 0.0 mm  9.6 °C 25.9 °C
Marta (VT) 22/04/18 21.40 14.8 °C 83 % 11.9 °C 1016.9 hPa 11.1 Km/h SSW 0.0 mm  11.4 °C 23.4 °C
Pomezia (RM) 22/04/18 21.50 17.8 °C 80 % 14.3 °C 1017.7 hPa 0.0 Km/h W 0.0 mm  13.7 °C 22.3 °C
Ronciglione Centro (VT) 22/04/18 21.50 17.9 °C 43 % 5.1 °C 1019.0 hPa 2.6 Km/h ESE 0.0 mm  12.9 °C 23.5 °C
Ronciglione - Ponte Cuzzoli (VT) 22/04/18 21.35 17.6 °C 57 % 9.0 °C 1018.0 hPa 1.6 Km/h WNW 0.0 mm  10.9 °C 24.3 °C
S. Lorenzo Nuovo (VT) 22/04/18 21.50 15.8 °C 73 % 11.0 °C 1017.3 hPa 2.5 Km/h WSW 0.0 mm  13.8 °C 22.7 °C
Valentano (VT) 22/04/18 21.50 15.9 °C 69 % 10.0 °C 1016.8 hPa 0.0 Km/h SSW 0.0 mm  14.7 °C 21.7 °C
Viterbo Santa Barbara (VT) 22/04/18 21.50 15.9 °C 67 % 9.8 °C 1017.9 hPa 8.5 Km/h SW 0.0 mm  11.6 °C 23.1 °C
Viterbo Strada Bagni (VT) 22/04/18 21.50 13.8 °C 83 % 11.1 °C 1018.2 hPa 0.0 Km/h SW 0.0 mm  8.8 °C 24.3 °C
Vitorchiano Pallone (VT) 22/04/18 18.20 21.6 °C 59 % 13.3 °C 1015.4 hPa 11.3 Km/h SW 0.0 mm  13.3 °C 23.7 °C
 
 
Regione LIGURIA
Località Giorno Ora Temp. Umid. Relat. Dew Point Press. Atm. Velocità Vento Direz. Vento Precip. Temp.
Min
Temp.
Max
Arenzano (GE) 22/04/18 21.33 18.2 °C 62 % 10.8 °C 1017.9 hPa 4.8 Km/h ENE 0.0 mm  16.7 °C 20.2 °C
Cosseria Lidora (SV) 22/04/18 21.30 15.6 °C 65 % 9.1 °C 1016.3 hPa 6.4 Km/h SSE 0.0 mm  9.1 °C 24.9 °C
Genova Albaro (GE) 22/04/18 21.33 17.4 °C 67 % 11.2 °C 1046.0 hPa 0.8 Km/h SSW 0.0 mm  14.7 °C 21.5 °C
Genova Erzelli (GE) 22/04/18 21.33 17.6 °C 76 % 13.3 °C 1016.9 hPa 0.0 Km/h --- 0.0 mm  15.8 °C 21.0 °C
Loano (SV) 22/04/18 21.35 17.4 °C 90 % 15.8 °C 1017.3 hPa 3.0 Km/h N 0.0 mm  16.8 °C 20.0 °C
Moneglia loc. Casale (GE) 22/04/18 21.50 18.2 °C 67 % 12.0 °C 1018.6 hPa 0.0 Km/h W 0.0 mm  15.6 °C 22.8 °C
Moneglia loc. La Secca (GE) 22/04/18 21.50 16.4 °C 86 % 14.1 °C 1017.4 hPa 0.0 Km/h NE 0.0 mm  16.2 °C 21.7 °C
Ortonovo (SP) 22/04/18 21.50 17.0 °C 60 % 9.2 °C 1015.2 hPa 3.8 Km/h SW 0.0 mm  14.7 °C 24.1 °C
Varese Ligure (SP) 22/04/18 21.50 16.2 °C 10 % -15.4 °C 1027.8 hPa 1.0 Km/h NO 0.0 mm  8.7 °C 25.8 °C
 
 
Regione LOMBARDIA
Località Giorno Ora Temp. Umid. Relat. Dew Point Press. Atm. Velocità Vento Direz. Vento Precip. Temp.
Min
Temp.
Max
Bernate Ticino fraz. Casate (MI) 22/04/18 21.33 20.4 °C 54 % 10.8 °C 1013.6 hPa 0.0 Km/h WSW 0.0 mm  13.6 °C 27.8 °C
Brebbia (VA) 22/04/18 13.30 25.8 °C 43 % 12.3 °C 1016.2 hPa 4.8 Km/h SE 0.0 mm  11.2 °C 25.8 °C
Calcinato (BS) 22/04/18 21.33 20.6 °C 58 % 12.0 °C 1018.0 hPa 0.0 Km/h S 0.0 mm  14.6 °C 28.1 °C
Cassano Magnago (VA) 22/04/18 21.42 19.6 °C 59 % 11.3 °C 1014.8 hPa 0.0 Km/h SE 0.0 mm  15.1 °C 28.2 °C
Cavaria con Premezzo (VA) 22/04/18 21.33 19.7 °C 59 % 11.1 °C 1015.1 hPa 0.0 Km/h NE 0.0 mm  13.4 °C 26.3 °C
Costa Volpino (BG) 22/04/18 21.28 19.8 °C 54 % 10.3 °C 1013.2 hPa 3.2 Km/h WNW 0.0 mm  13.4 °C 25.0 °C
Dorno (PV) 22/04/18 21.33 20.7 °C 65 % 13.9 °C 1015.5 hPa 0.0 Km/h SE 0.0 mm  13.8 °C 26.9 °C
Esine (BS) 22/04/18 21.33 19.4 °C 60 % 11.4 °C 1015.2 hPa 2.9 Km/h NNE 0.0 mm  13.5 °C 26.7 °C
Gaggiano (MI) 22/04/18 21.34 22.1 °C 54 % 12.3 °C 1015.1 hPa 0.5 Km/h SE 0.0 mm  16.7 °C 26.6 °C
Laxolo (BG) 22/04/18 21.38 17.9 °C 44 % 5.5 °C 1015.8 hPa 0.3 Km/h SW 0.0 mm  10.8 °C 23.3 °C
Lesmo (MB) 17/04/18 19.40 21.3 °C 60 % 13.2 °C 1021.8 hPa 0.0 Km/h E 0.0 mm  9.1 °C 24.1 °C
Lovere (BG) 22/04/18 21.41 19.5 °C 30 % 1.5 °C 1030.0 hPa 4.3 Km/h SSW 0.0 mm  14.1 °C 25.1 °C
Malnate San Salvatore (VA) 22/04/18 21.30 16.8 °C 67 % 10.6 °C 1016.6 hPa 0.0 Km/h --- 0.0 mm  11.2 °C 26.3 °C
Mezzana Bigli (PV) 22/04/18 21.50 20.2 °C 66 % 13.6 °C 1014.5 hPa 0.0 Km/h NNE 0.0 mm  11.8 °C 27.9 °C
Montagna in Valtellina (SO) 22/04/18 21.50 22.1 °C 46 % 9.9 °C 1015.4 hPa 0.0 Km/h W 0.0 mm  13.6 °C 29.1 °C
Morbegno (SO) 22/04/18 21.50 22.1 °C 44 % 9.3 °C 1014.8 hPa 0.0 Km/h SW 0.0 mm  14.2 °C 27.8 °C
Rivalta sul Mincio (MN) 22/04/18 21.35 20.4 °C 64 % 13.4 °C 1016.0 hPa 4.5 Km/h ESE 0.0 mm  12.9 °C 27.7 °C
Vigevano (PV) 22/04/18 21.53 22.2 °C 50 % 11.3 °C 1000.8 hPa 0.0 Km/h N 0.0 mm  15.4 °C 26.8 °C
 
 
Regione MARCHE
Località Giorno Ora Temp. Umid. Relat. Dew Point Press. Atm. Velocità Vento Direz. Vento Precip. Temp.
Min
Temp.
Max
Ancona (AN) 22/04/18 21.35 15.4 °C 88 % 13.5 °C 1018.3 hPa 0.0 Km/h S 0.2 mm  11.6 °C 23.4 °C
Barbara (AN) 22/04/18 21.33 16.4 °C 69 % 10.7 °C 1019.7 hPa 0.0 Km/h SSE 0.0 mm  11.3 °C 24.9 °C
Ca' Gallo (PU) 22/04/18 21.42 15.6 °C 83 % 12.8 °C 1013.4 hPa 2.9 Km/h NW 0.0 mm  8.2 °C 24.9 °C
Marina di Montemarciano (AN) 22/04/18 21.30 16.4 °C 73 % 11.6 °C 0.0 hPa 0.0 Km/h --- 1000.0 mm  8.9 °C 23.6 °C
Montelabbate (PU) 22/04/18 21.47 16.3 °C 80 % 12.8 °C 1012.1 hPa 1.8 Km/h SE 0.0 mm  8.7 °C 24.3 °C
San Benedetto del Tronto (AP) 22/04/18 21.33 17.4 °C 79 % 13.7 °C 1018.0 hPa 0.0 Km/h W 0.0 mm  13.8 °C 21.4 °C
 
 
Regione MOSELLE
Località Giorno Ora Temp. Umid. Relat. Dew Point Press. Atm. Velocità Vento Direz. Vento Precip. Temp.
Min
Temp.
Max
Seremange Erzange (Moselle) 22/04/18 21.50 18.8 °C 68 % 12.8 °C 1013.3 hPa 0.0 Km/h WSW 0.0 mm  11.7 °C 26.7 °C
 
 
Regione PIEMONTE
Località Giorno Ora Temp. Umid. Relat. Dew Point Press. Atm. Velocità Vento Direz. Vento Precip. Temp.
Min
Temp.
Max
Castelferro (AL) 22/04/18 21.33 19.0 °C 57 % 10.3 °C 1015.8 hPa 1.6 Km/h S 0.0 mm  12.9 °C 27.0 °C
Magnano (BI) 22/04/18 21.34 16.5 °C 73 % 11.7 °C 1016.4 hPa 0.0 Km/h W 0.0 mm  11.1 °C 25.0 °C
Monasterolo Torinese (TO) 22/04/18 21.35 20.3 °C 52 % 10.1 °C 1012.1 hPa 0.0 Km/h --- 0.0 mm  16.4 °C 25.5 °C
Mongrando San Michele (BI) 22/04/18 21.30 17.5 °C 69 % 11.7 °C 1015.2 hPa 0.0 Km/h NNW 0.0 mm  13.8 °C 25.4 °C
Muzzano (BI) 22/04/18 21.00 19.7 °C 53 % 9.9 °C 1013.5 hPa 4.8 Km/h NW 0.0 mm  16.6 °C 24.4 °C
Nichelino (TO) 22/04/18 21.30 23.6 °C 37 % 8.1 °C 1015.9 hPa 0.0 Km/h ESE 0.0 mm  12.4 °C 28.0 °C
Novara (NO) 22/04/18 21.30 23.1 °C 57 % 14.1 °C 1015.1 hPa 0.0 Km/h SE 0.0 mm  13.3 °C 29.6 °C
Ostana (CN) 22/04/18 19.49 12.4 °C 56 % 3.9 °C 1014.5 hPa 3.2 Km/h WNW 0.0 mm  11.3 °C 15.2 °C
Parella (TO) 22/04/18 21.44 20.8 °C 53 % 10.8 °C 1013.4 hPa 0.0 Km/h WNW 0.0 mm  14.3 °C 26.1 °C
Pecetto Torinese (TO) 22/04/18 21.44 20.2 °C 56 % 11.2 °C 1014.8 hPa 0.0 Km/h NNE 0.0 mm  16.6 °C 27.8 °C
Pila Valsesia (VC) 22/04/18 21.30 16.6 °C 60 % 8.8 °C 1014.2 hPa 0.0 Km/h NW 0.0 mm  9.9 °C 24.8 °C
Piovà Massaia (AT) 22/04/18 21.50 21.4 °C 58 % 12.8 °C 1013.8 hPa 1.4 Km/h NNE 0.0 mm  15.0 °C 25.7 °C
Pozzolo Formigaro (AL) 22/04/18 21.36 18.3 °C 57 % 9.6 °C 1016.7 hPa 3.2 Km/h SSE 0.0 mm  10.3 °C 28.1 °C
Pray (BI) 22/04/18 21.50 17.2 °C 70 % 11.7 °C 1015.5 hPa 2.0 Km/h --- 0.0 mm  9.4 °C 25.0 °C
Soriso (NO) 22/04/18 21.30 19.6 °C 58 % 11.1 °C 1015.4 hPa 0.0 Km/h SSE 0.0 mm  15.5 °C 25.6 °C
Torino Regio Parco (TO) 22/04/18 19.38 27.6 °C 32 % 9.4 °C 1015.2 hPa 3.2 Km/h SSE 0.0 mm  14.8 °C 30.4 °C
Valenza (AL) 22/04/18 21.38 21.0 °C 51 % 10.5 °C 1014.4 hPa 9.7 Km/h SSE 0.0 mm  12.1 °C 26.2 °C
Viozene Toria (CN) 22/04/18 21.50 12.3 °C 47 % 1.3 °C 1025.5 hPa 3.0 Km/h NNW 0.0 mm  10.8 °C 19.8 °C
 
 
Regione PUGLIA
Località Giorno Ora Temp. Umid. Relat. Dew Point Press. Atm. Velocità Vento Direz. Vento Precip. Temp.
Min
Temp.
Max
Acquaviva delle Fonti (BA) 22/04/18 21.33 14.7 °C 85 % 12.2 °C 1017.5 hPa 3.3 Km/h SSW 0.2 mm  9.4 °C 24.1 °C
S. Giovanni Rotondo (FG) 22/04/18 21.35 16.1 °C 63 % 9.1 °C 1017.4 hPa 0.0 Km/h --- 0.0 mm  11.7 °C 21.9 °C
Vieste (FG) 22/04/18 21.51 16.3 °C 81 % 13.1 °C 1019.2 hPa 6.3 Km/h SE 0.0 mm  12.8 °C 19.8 °C
 
 
Regione SARDEGNA
Località Giorno Ora Temp. Umid. Relat. Dew Point Press. Atm. Velocità Vento Direz. Vento Precip. Temp.
Min
Temp.
Max
Bitti (NU) 22/04/18 21.33 15.3 °C 55 % 6.3 °C 1020.1 hPa 0.0 Km/h SW 0.0 mm  12.4 °C 23.9 °C
Bonorva (SS) 22/04/18 21.30 18.0 °C 56 % 9.1 °C 1018.3 hPa 0.0 Km/h --- 0.0 mm  11.9 °C 26.4 °C
Borore (NU) 22/04/18 21.34 15.4 °C 78 % 11.6 °C 1017.9 hPa 6.3 Km/h WSW 0.0 mm  11.4 °C 26.3 °C
Iglesias (CI) 22/04/18 21.44 17.4 °C 72 % 12.3 °C 1020.9 hPa 0.0 Km/h ENE 0.0 mm  13.3 °C 23.4 °C
Oristano (OR) 22/04/18 21.50 17.2 °C 86 % 14.9 °C 1018.5 hPa 0.0 Km/h N 0.2 mm  12.4 °C 25.2 °C
Orosei (NU) 22/04/18 21.36 17.4 °C 82 % 14.3 °C 1018.3 hPa 0.0 Km/h NW 0.0 mm  13.1 °C 23.1 °C
San Vito (CA) 22/04/18 21.51 11.0 °C 88 % 9.1 °C 991.3 hPa 8.2 Km/h W 0.0 mm  11.0 °C 11.0 °C
Sinnai (CA) 22/04/18 21.25 17.7 °C 66 % 11.3 °C 1019.7 hPa 0.0 Km/h ENE 0.0 mm  13.8 °C 24.3 °C
 
 
Regione SICILIA
Località Giorno Ora Temp. Umid. Relat. Dew Point Press. Atm. Velocità Vento Direz. Vento Precip. Temp.
Min
Temp.
Max
Barcellona P.G. Centro (ME) 22/04/18 21.33 17.4 °C 84 % 14.7 °C 1019.3 hPa 6.4 Km/h SE 0.0 mm  14.7 °C 23.0 °C
Barcellona Pozzo di Gotto (ME) 22/04/18 21.33 17.4 °C 82 % 14.3 °C 1019.1 hPa 4.8 Km/h WSW 0.0 mm  14.6 °C 22.2 °C
Brolo c/da Parrazzà (ME) 22/04/18 21.40 15.7 °C 81 % 12.5 °C 1019.9 hPa 6.0 Km/h ESE 0.0 mm  14.6 °C 20.1 °C
Cammarata (AG) 22/04/18 19.24 13.4 °C 65 % 7.0 °C 1020.0 hPa 5.0 Km/h WSW 4.8 mm  12.4 °C 17.8 °C
Cefalù (PA) 22/04/18 21.34 16.6 °C 72 % 11.5 °C 1016.2 hPa 3.5 Km/h S 0.0 mm  15.3 °C 19.8 °C
Mirabella Imbaccari (CT) 22/04/18 21.38 13.5 °C 75 % 9.2 °C 1018.9 hPa 3.7 Km/h W 15.2 mm  11.5 °C 20.1 °C
Pace del Mela (ME) 22/04/18 21.50 15.4 °C 83 % 12.5 °C 1020.4 hPa 1.2 Km/h SE 0.0 mm  12.5 °C 23.0 °C
Piraino contr. Fiumara (ME) 22/04/18 21.35 15.3 °C 87 % 13.1 °C 1019.7 hPa 0.0 Km/h NE 0.0 mm  12.7 °C 21.2 °C
San Cataldo (CL) 22/04/18 21.51 0.0 °C 100 % 0.0 °C 1017.4 hPa 0.0 Km/h NW 15.5 mm  0.0 °C 0.0 °C
San Giovanni la Punta Trappeto (CT) 22/04/18 21.35 15.3 °C 81 % 12.0 °C 1019.5 hPa 3.2 Km/h NE 0.0 mm  13.8 °C 21.2 °C
 
 
Regione TOSCANA
Località Giorno Ora Temp. Umid. Relat. Dew Point Press. Atm. Velocità Vento Direz. Vento Precip. Temp.
Min
Temp.
Max
Avenza-Carrara (MS) 22/04/18 21.25 18.9 °C 67 % 12.7 °C 1019.8 hPa 0.0 Km/h --- 0.0 mm  14.2 °C 24.7 °C
Bientina (PI) 22/04/18 21.33 18.3 °C 60 % 10.4 °C 1015.1 hPa 6.0 Km/h E 0.0 mm  11.5 °C 25.4 °C
Carmignano loc. Seano (PO) 22/04/18 21.34 18.6 °C 58 % 10.1 °C 1017.6 hPa 0.0 Km/h SSW 0.0 mm  10.7 °C 27.6 °C
Castelnuovo V.C. (PI) 22/04/18 21.30 14.6 °C 54 % 5.3 °C 1017.3 hPa 0.7 Km/h WSW 0.0 mm  13.3 °C 22.8 °C
Isola d'Elba Marina di Campo (LI) 22/04/18 21.30 15.2 °C 88 % 13.2 °C 951.5 hPa 0.0 Km/h --- 0.0 mm  10.4 °C 21.6 °C
Massarosa (LU) 22/04/18 21.50 15.7 °C 79 % 12.1 °C 1006.2 hPa 0.0 Km/h N 0.0 mm  13.3 °C 24.9 °C
Montespertoli (FI) 22/04/18 21.47 18.1 °C 48 % 6.9 °C 1020.2 hPa 2.9 Km/h WNW 0.0 mm  16.3 °C 19.9 °C
Montopoli in val d'Arno Loc. Capanne (PI) 21/04/18 18.58 25.3 °C 39 % 10.5 °C 1015.8 hPa 6.0 Km/h SSW 0.0 mm  9.4 °C 30.2 °C
Pisa zona I Passi (PI) 22/04/18 21.50 16.9 °C 66 % 10.5 °C 1019.3 hPa 0.0 Km/h ENE 0.0 mm  12.2 °C 24.0 °C
Reggello (FI) 22/04/18 21.50 17.8 °C 50 % 7.2 °C 1020.6 hPa 6.4 Km/h SSE 0.0 mm  11.6 °C 24.7 °C
Torri (FI) 22/04/18 21.30 18.1 °C 51 % 7.8 °C 1017.4 hPa 0.0 Km/h --- 1.0 mm  10.2 °C 25.9 °C
Torrita di Siena (SI) 22/04/18 21.30 18.4 °C 67 % 12.1 °C 1018.5 hPa 3.2 Km/h WSW 0.0 mm  8.1 °C 28.2 °C
 
 
Regione TRENTINO A. A.
Località Giorno Ora Temp. Umid. Relat. Dew Point Press. Atm. Velocità Vento Direz. Vento Precip. Temp.
Min
Temp.
Max
Ala (TN) 22/04/18 21.33 18.4 °C 61 % 10.7 °C 1015.4 hPa 9.6 Km/h ESE 0.0 mm  13.4 °C 25.8 °C
Avio (TN) 22/04/18 21.33 19.8 °C 57 % 11.0 °C 1015.7 hPa 0.0 Km/h WSW 0.0 mm  14.9 °C 27.8 °C
Besenello (TN) 22/04/18 21.33 20.4 °C 51 % 9.9 °C 1016.4 hPa 8.2 Km/h NNE 0.0 mm  12.6 °C 28.0 °C
Bolognano di Arco (TN) 22/04/18 21.33 19.4 °C 58 % 10.9 °C 1016.0 hPa 3.2 Km/h SE 0.0 mm  12.9 °C 25.4 °C
Borgo Valsugana (TN) 22/04/18 21.40 17.4 °C 52 % 7.4 °C 1015.8 hPa 4.3 Km/h SSW 0.0 mm  11.1 °C 26.3 °C
Calliano (TN) 22/04/18 21.33 19.6 °C 56 % 10.6 °C 1015.1 hPa 14.5 Km/h SE 0.0 mm  11.8 °C 28.1 °C
Gardolo (TN) 22/04/18 21.34 22.1 °C 46 % 9.9 °C 1015.7 hPa 0.0 Km/h NNE 0.0 mm  12.0 °C 26.3 °C
Isera loc. Reviano (TN) 22/04/18 21.34 19.6 °C 52 % 9.5 °C 1011.5 hPa 6.5 Km/h SW 0.0 mm  12.6 °C 26.7 °C
Lavis (TN) 22/04/18 21.30 22.2 °C 45 % 9.4 °C 1015.6 hPa 13.0 Km/h S 0.0 mm  11.7 °C 27.2 °C
Margone (TN) 22/04/18 21.30 15.3 °C 63 % 8.3 °C 1018.0 hPa 7.2 Km/h SSW 0.0 mm  11.6 °C 19.3 °C
Massone di Arco (TN) 22/04/18 21.50 19.1 °C 57 % 10.4 °C 1015.3 hPa 1.0 Km/h SE 0.0 mm  13.8 °C 24.3 °C
Miola di Piné (TN) 22/04/18 21.50 13.7 °C 72 % 8.7 °C 1016.6 hPa 4.2 Km/h ENE 0.0 mm  9.8 °C 21.9 °C
Padergnone (TN) 22/04/18 21.45 18.9 °C 62 % 11.4 °C 1016.4 hPa 0.7 Km/h SSE 0.0 mm  11.1 °C 25.4 °C
Taio Mollaro (TN) 22/04/18 21.50 17.8 °C 62 % 10.4 °C 1018.3 hPa 0.0 Km/h NNE 0.0 mm  9.4 °C 27.1 °C
Trento (TN) 22/04/18 21.51 21.5 °C 50 % 10.6 °C 1014.7 hPa 1.6 Km/h ENE 0.0 mm  14.3 °C 27.3 °C
Vattaro fraz. Pian dei Pradi (TN) 22/04/18 21.49 15.4 °C 69 % 9.7 °C 1016.7 hPa 14.3 Km/h WSW 0.0 mm  10.4 °C 22.9 °C
 
 
Regione UMBRIA
Località Giorno Ora Temp. Umid. Relat. Dew Point Press. Atm. Velocità Vento Direz. Vento Precip. Temp.
Min
Temp.
Max
Castiglione del Lago (PG) 22/04/18 21.30 18.2 °C 60 % 10.3 °C 1019.6 hPa 0.0 Km/h --- 0.0 mm  8.7 °C 26.6 °C
Foligno (PG) 22/04/18 21.20 20.8 °C 62 % 13.3 °C 1017.1 hPa 0.0 Km/h WSW 0.0 mm  11.5 °C 26.3 °C
Orvieto (TR) 22/04/18 21.46 16.3 °C 72 % 11.2 °C 1016.6 hPa 1.1 Km/h SSE 0.0 mm  9.8 °C 26.4 °C
Perugia San Mariano (PG) 22/04/18 21.45 18.8 °C 60 % 10.9 °C 1018.2 hPa 0.0 Km/h N 0.0 mm  10.8 °C 25.8 °C
 
 
Regione VALLE DAOSTA
Località Giorno Ora Temp. Umid. Relat. Dew Point Press. Atm. Velocità Vento Direz. Vento Precip. Temp.
Min
Temp.
Max
Colle del Piccolo San Bernardo La Thuile (AO) 22/04/18 21.33 7.3 °C 56 % -1.1 °C 1018.9 hPa 8.0 Km/h S 0.0 mm  3.4 °C 8.8 °C
 
 
Regione VENETO
Località Giorno Ora Temp. Umid. Relat. Dew Point Press. Atm. Velocità Vento Direz. Vento Precip. Temp.
Min
Temp.
Max
Alleghe (BL) 22/04/18 21.33 12.8 °C 70 % 7.5 °C 1006.2 hPa 0.0 Km/h SSE 0.0 mm  7.9 °C 23.0 °C
Alleghe Lago (BL) 22/04/18 21.33 12.9 °C 68 % 7.1 °C 1019.2 hPa 3.9 Km/h ENE 0.0 mm  8.0 °C 22.2 °C
Arquà Polesine (RO) 22/04/18 21.33 17.3 °C 76 % 13.0 °C 1018.2 hPa 0.0 Km/h ENE 0.0 mm  9.9 °C 28.0 °C
Arzignano loc. Castello (VI) 22/04/18 20.45 19.7 °C 63 % 12.5 °C 1015.4 hPa 0.0 Km/h --- 0.0 mm  13.1 °C 27.4 °C
Arzignano Pugnello (VI) 22/04/18 21.33 16.1 °C 77 % 12.2 °C 1015.0 hPa 2.0 Km/h W 0.0 mm  12.1 °C 25.2 °C
Arzignano San Bortolo (VI) 22/04/18 21.40 18.8 °C 64 % 11.9 °C 1014.8 hPa 3.2 Km/h NNW 0.0 mm  14.9 °C 25.4 °C
Arzignano Tezze (VI) 22/04/18 21.41 16.1 °C 80 % 12.7 °C 1016.5 hPa 0.0 Km/h NNW 0.0 mm  10.2 °C 26.2 °C
Asiago Rifugio Val Formica (VI) 22/04/18 21.41 5.6 °C 89 % 3.9 °C 1018.5 hPa 7.4 Km/h NNW 0.3 mm  3.8 °C 14.3 °C
Badia Calavena loc. San Valentino (VR) 22/04/18 21.33 15.1 °C 72 % 10.1 °C 1014.6 hPa 4.8 Km/h W 0.0 mm  13.2 °C 20.3 °C
Bardolino (VR) 22/04/18 18.15 25.5 °C 37 % 10.0 °C 1008.2 hPa 0.0 Km/h WSW 0.0 mm  15.6 °C 25.7 °C
Bassano del Grappa (VI) 22/04/18 07.40 15.1 °C 74 % 10.5 °C 1004.9 hPa 0.0 Km/h ENE 0.0 mm  13.4 °C 16.3 °C
Beccacivetta (VR) 22/04/18 21.44 19.6 °C 65 % 12.8 °C 1016.5 hPa 4.8 Km/h ENE 0.0 mm  12.7 °C 27.6 °C
Belluno Castion (BL) 22/04/18 21.30 15.7 °C 69 % 10.0 °C 1015.5 hPa 0.0 Km/h NW 0.0 mm  10.2 °C 24.3 °C
Brendola (VI) 22/04/18 21.32 19.6 °C 71 % 14.2 °C 1002.7 hPa 2.5 Km/h NE 0.0 mm  12.8 °C 30.5 °C
Bresega (PD) 22/04/18 21.33 17.9 °C 75 % 13.3 °C 1016.6 hPa 3.0 Km/h E 0.0 mm  11.3 °C 27.6 °C
Brugine2 (PD) 22/04/18 21.27 15.0 °C 85 % 12.5 °C 1017.0 hPa 0.0 Km/h ESE 0.0 mm  10.6 °C 23.7 °C
Caprino (VR) 22/04/18 21.34 17.6 °C 65 % 11.0 °C 1014.4 hPa 0.0 Km/h WSW 0.0 mm  13.1 °C 26.7 °C
Carceri (PD) 22/04/18 21.33 17.4 °C 75 % 12.8 °C 1016.1 hPa 4.8 Km/h E 0.0 mm  9.9 °C 29.1 °C
Cartigliano (VI) 22/04/18 21.29 18.3 °C 63 % 11.2 °C 1016.2 hPa 0.0 Km/h ESE 0.0 mm  12.1 °C 27.8 °C
Castel d'Azzano (VR) 22/04/18 21.25 20.5 °C 62 % 13.0 °C 1016.8 hPa 0.0 Km/h ESE 0.0 mm  13.4 °C 27.2 °C
Castelfranco Veneto (TV) 22/04/18 21.35 18.6 °C 61 % 10.9 °C 1017.2 hPa 0.0 Km/h --- 0.0 mm  11.9 °C 25.9 °C
Castelgomberto (VI) 22/04/18 21.34 19.0 °C 56 % 10.0 °C 1016.1 hPa 0.0 Km/h NW 0.0 mm  12.4 °C 27.4 °C
Cavazzale (VI) 22/04/18 16.55 25.3 °C 43 % 11.8 °C 1015.4 hPa 0.0 Km/h NE 0.0 mm  12.5 °C 25.8 °C
Cerea (VR) 22/04/18 21.30 19.8 °C 66 % 13.3 °C 1016.4 hPa 6.4 Km/h ESE 0.0 mm  13.3 °C 28.2 °C
Cerea2 (VR) 22/04/18 21.30 18.9 °C 66 % 12.4 °C 1017.2 hPa 8.8 Km/h SE 0.0 mm  13.2 °C 27.9 °C
Cima Grappa (TV) 22/04/18 21.34 10.6 °C 74 % 6.2 °C 1018.1 hPa 5.8 Km/h SW 0.0 mm  9.4 °C 15.5 °C
Cismon del Grappa loc. Corlo (VI) 22/04/18 21.34 18.4 °C 59 % 10.2 °C 1018.1 hPa 7.6 Km/h SW 0.0 mm  11.8 °C 24.2 °C
Cittadella (PD) 22/04/18 21.34 19.0 °C 61 % 11.3 °C 1016.3 hPa 0.0 Km/h SE 0.0 mm  14.3 °C 27.1 °C
Cogollo del Cengio (VI) 22/04/18 21.33 16.2 °C 84 % 13.5 °C 1016.6 hPa 0.0 Km/h N 0.0 mm  11.7 °C 24.0 °C
Colle S. Lucia Posalz (BL) 22/04/18 17.19 18.8 °C 16 % -7.6 °C 1026.0 hPa 0.0 Km/h SSE 0.0 mm  12.7 °C 23.1 °C
Cologna Veneta Sant'Andrea (VR) 22/04/18 21.35 18.6 °C 70 % 13.0 °C 1016.7 hPa 4.8 Km/h SE 0.0 mm  11.8 °C 27.7 °C
Colognola ai Colli (VR) 22/04/18 21.35 20.1 °C 60 % 12.0 °C 1017.4 hPa 4.8 Km/h N 0.0 mm  11.4 °C 27.9 °C
Contrada Dosso Gervasio (VR) 22/04/18 21.30 15.1 °C 64 % 7.8 °C 1015.9 hPa 0.0 Km/h S 0.0 mm  13.2 °C 19.9 °C
Costa di Vittorio Veneto (TV) 22/04/18 21.44 16.7 °C 66 % 10.3 °C 1016.1 hPa 0.0 Km/h SE 0.0 mm  12.2 °C 25.6 °C
Crespano del Grappa (TV) 22/04/18 21.43 15.6 °C 68 % 9.7 °C 1014.1 hPa 1.9 Km/h NNE 0.0 mm  12.4 °C 23.6 °C
Dossobuono (VR) 22/04/18 21.34 20.4 °C 64 % 13.4 °C 1017.9 hPa 8.0 Km/h E 0.0 mm  14.2 °C 27.1 °C
Erbezzo Passo Fittanze (VR) 22/04/18 21.42 11.3 °C 70 % 6.0 °C 1017.8 hPa 8.7 Km/h SSW 0.0 mm  9.7 °C 16.0 °C
Falzè di Piave (TV) 22/04/18 21.33 14.9 °C 77 % 10.9 °C 1018.3 hPa 0.0 Km/h --- 0.0 mm  9.4 °C 25.8 °C
Farra di Soligo (TV) 22/04/18 21.34 15.9 °C 55 % 6.9 °C 1022.8 hPa 0.0 Km/h NNE 0.0 mm  11.6 °C 25.3 °C
Feltre Celarda (BL) 22/04/18 21.33 19.3 °C 55 % 10.0 °C 1014.0 hPa 2.8 Km/h SSE 0.0 mm  7.9 °C 24.5 °C
Ferrara di M.B. (VR) 22/04/18 21.25 11.6 °C 67 % 5.6 °C 1013.8 hPa 0.0 Km/h N 0.0 mm  8.5 °C 16.8 °C
Fumane Contrada La Ca (VR) 22/04/18 21.42 17.2 °C 61 % 9.6 °C 1020.2 hPa 1.6 Km/h W 0.0 mm  17.2 °C 20.1 °C
Gallio (VI) 22/04/18 21.40 11.1 °C 77 % 7.2 °C 1017.2 hPa 1.6 Km/h NNW 0.0 mm  8.4 °C 19.2 °C
Jesolo (VE) 20/04/18 06.00 24.1 °C 43 % 10.7 °C 1020.9 hPa 4.8 Km/h NNW 0.0 mm  15.9 °C 24.1 °C
Legnago (VR) 22/04/18 21.35 17.1 °C 81 % 13.8 °C 1016.5 hPa 0.0 Km/h ENE 0.0 mm  11.8 °C 26.4 °C
Lugagnano (VR) 22/04/18 21.33 20.7 °C 63 % 13.3 °C 1015.2 hPa 6.5 Km/h SSE 0.0 mm  14.3 °C 27.3 °C
Lusiana Sciessere (VI) 22/04/18 21.41 13.8 °C 80 % 10.4 °C 1019.9 hPa 0.0 Km/h E 0.0 mm  12.9 °C 20.8 °C
Malga Malera (VR) 22/04/18 20.42 0.8 °C  %  °C  hPa 0.0 Km/h 0.0 mm   °C  °C
Marano Vicentino2 (VI) 22/04/18 21.30 17.8 °C 67 % 11.6 °C 1016.5 hPa 0.0 Km/h W 0.0 mm  11.4 °C 25.1 °C
Marostica Valle San Floriano (VI) 22/04/18 21.33 15.7 °C 77 % 11.7 °C 1018.3 hPa 0.0 Km/h N 0.0 mm  12.0 °C 25.1 °C
Merlara (PD) 22/04/18 21.35 17.1 °C 75 % 12.6 °C 1015.8 hPa 3.2 Km/h ESE 0.0 mm  10.2 °C 26.9 °C
Mizzole (VR) 22/04/18 21.50 18.1 °C 69 % 12.3 °C 1017.2 hPa 5.0 Km/h NW 0.0 mm  13.9 °C 28.4 °C
Molina (VR) 22/04/18 20.42 13.3 °C 68 % 7.5 °C 1015.1 hPa 5.0 Km/h N 0.0 mm  11.9 °C 22.1 °C
Monselice (PD) 22/04/18 21.48 19.0 °C 63 % 11.8 °C 1018.0 hPa 1.1 Km/h NE 0.0 mm  14.8 °C 28.3 °C
Montebello Vicentino loc. Selva (VI) 22/04/18 21.50 18.5 °C 44 % 6.0 °C 1016.9 hPa 0.6 Km/h NE 0.0 mm  15.8 °C 26.6 °C
Montecchio Maggiore Sant'Urbano (VI) 22/04/18 21.41 18.4 °C 47 % 6.8 °C 1020.9 hPa 5.6 Km/h N 0.0 mm  13.6 °C 27.9 °C
Monteforte d'Alpone (VR) 22/04/18 21.35 19.9 °C 58 % 11.4 °C 1015.3 hPa 4.8 Km/h E 0.0 mm  13.7 °C 27.4 °C
Montorio (VR) 22/04/18 21.47 20.1 °C 61 % 12.3 °C 1018.8 hPa 1.8 Km/h NNW 0.0 mm  14.2 °C 27.8 °C
Montorso Vicentino (VI) 22/04/18 21.50 17.0 °C 68 % 11.0 °C 1016.6 hPa 0.0 Km/h NNW 0.0 mm  13.2 °C 24.5 °C
Onara extraurbana (PD) 20/04/18 15.29 28.3 °C 40 % 13.4 °C 1019.8 hPa 0.7 Km/h SE 0.0 mm  11.0 °C 28.5 °C
Oppeano (VR) 16/04/18 07.00 11.1 °C 92 % 9.8 °C 1006.1 hPa 0.0 Km/h --- 0.3 mm  10.9 °C 15.9 °C
Pastrengo (VR) 22/04/18 21.44 20.6 °C 55 % 11.2 °C 1018.5 hPa 2.4 Km/h SE 0.0 mm  14.6 °C 26.6 °C
Pastrengo Corné (VR) 22/04/18 21.36 19.8 °C 62 % 12.3 °C 1014.9 hPa 7.9 Km/h NNE 0.0 mm  14.1 °C 26.7 °C
Perarolo di Arcugnano (VI) 22/04/18 21.54 15.5 °C 71 % 10.3 °C 987.8 hPa 0.0 Km/h SE 0.0 mm  10.9 °C 25.9 °C
Pescantina Are (VR) 22/04/18 21.42 20.8 °C 60 % 12.8 °C 1016.1 hPa 0.0 Km/h ENE 0.0 mm  13.6 °C 29.2 °C
Peschiera del Garda (VR) 22/04/18 21.35 20.2 °C 63 % 12.9 °C 1017.0 hPa 8.0 Km/h ESE 0.0 mm  14.1 °C 27.2 °C
Pian di Castagné (VR) 22/04/18 21.40 17.4 °C 66 % 11.0 °C 1016.5 hPa 11.3 Km/h E 0.0 mm  16.5 °C 24.9 °C
Pian di Castagné2 (VR) 22/04/18 21.46 16.1 °C 72 % 11.1 °C 1018.8 hPa 4.7 Km/h NE 0.0 mm  14.3 °C 25.5 °C
Ponte San Nicolò (PD) 22/04/18 21.47 18.6 °C 67 % 12.3 °C 1016.8 hPa 3.2 Km/h SSE 0.0 mm  13.8 °C 25.4 °C
Rifugio Primaneve (VR) 22/04/18 21.43 9.3 °C 80 % 6.0 °C 1017.8 hPa 24.1 Km/h WSW 0.0 mm  8.8 °C 12.4 °C
Romano d'Ezzelino Fellette (VI) 22/04/18 21.51 26.9 °C 19 % 1.3 °C 1027.8 hPa 0.0 Km/h ENE 0.0 mm  26.9 °C 26.9 °C
Rosolina (RO) 22/04/18 21.45 16.6 °C 78 % 12.7 °C 1017.5 hPa 3.2 Km/h SSW 0.0 mm  13.4 °C 24.7 °C
S. Giovanni Ilarione2 (VR) 22/04/18 21.35 16.3 °C 77 % 12.2 °C 1016.4 hPa 1.6 Km/h NW 0.0 mm  12.2 °C 26.2 °C
S. Giovanni Lupatoto (VR) 22/04/18 21.30 20.1 °C 69 % 14.2 °C 1016.7 hPa 1.6 Km/h E 0.0 mm  14.0 °C 28.2 °C
S. Lorenzo di Vittorio Veneto (TV) 22/04/18 21.50 16.6 °C 63 % 9.5 °C 1017.8 hPa 0.0 Km/h N 0.0 mm  14.4 °C 23.1 °C
S. Maria di Zevio Loc. 3 Ponti (VR) 22/04/18 21.49 19.1 °C 70 % 13.3 °C 1018.4 hPa 3.0 Km/h E 0.0 mm  12.5 °C 27.2 °C
S. Maria Maddalena (RO) 22/04/18 21.45 18.7 °C 77 % 14.4 °C 1015.9 hPa 1.7 Km/h E 0.0 mm  11.8 °C 27.7 °C
S. Martino Lupari (PD) 21/04/18 19.10 25.4 °C 43 % 11.9 °C 790.0 hPa 0.0 Km/h S 0.0 mm  15.1 °C 29.1 °C
S. Rocco di Villabalzana (VI) 22/04/18 21.53 17.2 °C 69 % 11.7 °C 1016.7 hPa 6.5 Km/h ENE 0.0 mm  13.3 °C 26.9 °C
Salcedo (VI) 22/04/18 21.50 16.7 °C 62 % 9.4 °C 1017.5 hPa 8.0 Km/h NE 0.0 mm  13.5 °C 23.5 °C
San Nazario (VI) 22/04/18 21.46 17.1 °C 66 % 10.7 °C 1016.5 hPa 0.0 Km/h N 0.0 mm  13.2 °C 27.2 °C
San Pietro di Rosà (VI) 22/04/18 21.50 16.7 °C 67 % 10.5 °C 1020.3 hPa 0.0 Km/h NE 0.0 mm  12.9 °C 26.8 °C
San Pietro in Cariano (VR) 22/04/18 21.35 18.6 °C 62 % 11.2 °C 1017.2 hPa 2.6 Km/h NE 0.0 mm  14.2 °C 26.3 °C
San Zeno di Mont. Loc. Castello (VR) 22/04/18 21.49 17.5 °C 52 % 7.2 °C 1015.8 hPa 11.0 Km/h WNW 0.0 mm  13.3 °C 20.9 °C
Santa Maria di Negrar (VR) 22/04/18 21.43 20.0 °C 55 % 10.7 °C 1017.8 hPa 0.0 Km/h W 0.0 mm  13.5 °C 27.5 °C
Sarcedo (VI) 22/04/18 21.50 18.2 °C 65 % 11.5 °C 1016.0 hPa 0.7 Km/h NNE 0.0 mm  11.8 °C 26.3 °C
Schio (VI) 22/04/18 21.20 18.1 °C 71 % 12.8 °C 1018.4 hPa 1.6 Km/h WNW 0.0 mm  13.1 °C 26.4 °C
Schio Monte Magré (VI) 22/04/18 21.50 14.5 °C 80 % 11.1 °C 0.0 hPa 0.0 Km/h W 0.0 mm  12.2 °C 23.9 °C
Selva di Progno (VR) 22/04/18 21.40 13.2 °C 76 % 9.1 °C 1017.2 hPa 0.0 Km/h SSW 0.0 mm  9.8 °C 22.1 °C
Soave Borgo Bassano (VR) 22/04/18 21.35 20.5 °C 60 % 12.5 °C 1016.9 hPa 3.0 Km/h ENE 0.0 mm  13.4 °C 28.5 °C
Sona Loc. La Colombara (VR) 22/04/18 21.00 20.6 °C 53 % 10.0 °C 1012.6 hPa 2.0 Km/h NE 0.0 mm  12.7 °C 26.4 °C
Tombolo (PD) 22/04/18 21.50 18.1 °C 66 % 11.6 °C 1017.6 hPa 0.6 Km/h E 0.0 mm  13.1 °C 26.3 °C
Treviso (TV) 22/04/18 21.49 15.5 °C 81 % 12.3 °C 1017.5 hPa 0.0 Km/h E 0.0 mm  11.7 °C 25.2 °C
Val Lastaro (VI) 22/04/18 21.49 8.0 °C 91 % 6.7 °C 1018.7 hPa 0.0 Km/h SE 0.0 mm  4.0 °C 17.5 °C
Valdagno (VI) 22/04/18 21.51 16.4 °C 72 % 11.3 °C 1016.4 hPa 3.6 Km/h SW 0.0 mm  12.0 °C 25.8 °C
Valdobbiadene San Pietro di Barbozza (TV) 22/04/18 21.35 16.8 °C 61 % 9.3 °C 1016.3 hPa 4.8 Km/h N 0.0 mm  15.0 °C 22.4 °C
Valli del Pasubio loc. Gisbenti (VI) 22/04/18 21.51 13.4 °C 48 % 2.6 °C 973.0 hPa 0.2 Km/h --- 0.0 mm  9.6 °C 23.8 °C
Vazzo Roveré Veronese (VR) 22/04/18 21.51 13.7 °C 68 % 7.9 °C 1014.2 hPa 6.4 Km/h NE 0.0 mm  12.7 °C 20.2 °C
Verona Cadidavid (VR) 22/04/18 21.35 19.9 °C 61 % 12.2 °C 1015.8 hPa 4.3 Km/h E 0.0 mm  10.7 °C 27.8 °C
Verona Saval (VR) 22/04/18 21.39 21.1 °C 55 % 11.7 °C 1017.2 hPa 5.5 Km/h WSW 0.0 mm  -573.3 °C 28.5 °C
Vicenza Campedello (VI) 22/04/18 21.58 15.1 °C 81 % 11.7 °C 1018.0 hPa 0.0 Km/h SE 0.0 mm  8.8 °C 27.7 °C
Vicenza Moracchino (VI) 22/04/18 21.51 18.3 °C 61 % 10.6 °C 1016.2 hPa 4.8 Km/h N 0.0 mm  12.4 °C 26.6 °C
Vicenza Pecori Giraldi (VI) 22/04/18 21.40 19.7 °C 70 % 14.1 °C 1020.2 hPa 0.2 Km/h NNE 0.0 mm  13.3 °C 26.7 °C
Vicenza S. Lazzaro (VI) 22/04/18 21.50 19.4 °C 61 % 11.7 °C 1016.1 hPa 5.0 Km/h NE 0.0 mm  13.3 °C 26.8 °C
Vicenza San Gaetano (VI) 22/04/18 21.51 18.2 °C 68 % 12.2 °C 1017.0 hPa 0.0 Km/h N 0.0 mm  12.6 °C 27.0 °C
Vigardolo (VI) 22/04/18 21.39 18.3 °C 60 % 10.4 °C 1016.8 hPa 3.5 Km/h NE 0.0 mm  12.9 °C 25.9 °C
Vigasio (VR) 22/04/18 21.30 20.4 °C 66 % 13.8 °C 1014.9 hPa 0.0 Km/h ESE 0.0 mm  13.7 °C 28.6 °C
Villabartolomea (VR) 22/04/18 20.44 19.9 °C 63 % 12.8 °C 1015.1 hPa 8.0 Km/h SE 0.0 mm  12.4 °C 27.0 °C
Vittorio Veneto (TV) 22/04/18 21.35 15.9 °C 70 % 10.5 °C 1017.2 hPa 0.0 Km/h SSE 0.0 mm  13.8 °C 25.4 °C
Vittorio Veneto Parco Fenderl (TV) 22/04/18 21.40 14.1 °C 78 % 10.3 °C 1018.5 hPa 0.0 Km/h NNW 0.0 mm  13.4 °C 26.5 °C
Volpago del Montello (TV) 22/04/18 21.30 14.6 °C 73 % 9.8 °C 1017.1 hPa 0.0 Km/h --- 0.0 mm  11.3 °C 24.4 °C
 
 
 
(*) = Precipitazioni nelle ultime 24h.
Dati non aggiornati nell'ultima ora.
   
In collaborazione con:
 
Top! Top!